Ikke nødvendig med spesiell oppmerksomhet.   -   Ingen advarsler for øyeblikket

METAR Rapporter

 

ENZV - Stavanger
Oppdatert: 24/04/2018 06:20
Light rain, mostly cloudy
Light rain, mostly cloudy
 Vind fra S
Vind: S 13 km/h
Temperatur: 7°C
Vindkjøling: 5°C
Duggpunkt: 6°C
Fuktighet: 93%
Barometer: 999 hPa
Oversikt: lett regn
Skyet: hovedsaklig skyet
Sikt: 6 km
2018/04/24 04:20 ENZV 240420Z 18007KT 6000 -RA BKN005 07/06 Q0999 TEMPO 3000 RADZ BR BKN003
ENBR - Bergen
Oppdatert: 24/04/2018 06:20
Light rain, mostly cloudy
Light rain, mostly cloudy
 Vind fra S
Vind: S 19 km/h
Temperatur: 6°C
Vindkjøling: 3°C
Duggpunkt: 6°C
Fuktighet: 100%
Barometer: 997 hPa
Oversikt: lett regn
Skyet: hovedsaklig skyet
Sikt: 7 km
2018/04/24 04:20 ENBR 240420Z 19010KT 7000 -RA BKN004 06/06 Q0997 TEMPO 3000 RADZ BKN002 RMK WIND 1200FT 20014KT
 
ENHD - Haugesund
Oppdatert: 24/04/2018 06:20
Light rain, mostly cloudy
Light rain, mostly cloudy
 Vind fra S
Vind: S 17 km/h
Temperatur: 7°C
Vindkjøling: 4°C
Duggpunkt: 6°C
Fuktighet: 93%
Barometer: 998 hPa
Oversikt: lett regn
Skyet: hovedsaklig skyet
Sikt: 7 km
2018/04/24 04:20 ENHD 240420Z 18009KT 7000 -RA BKN004 07/06 Q0998
ENCN - Kristiansand
Oppdatert: 24/04/2018 06:20
hovedsaklig skyet
hovedsaklig skyet
 Vind fra S
Vind: S 13 km/h
Temperatur: 6°C
Vindkjøling: 3°C
Duggpunkt: 5°C
Fuktighet: 93%
Barometer: 1001 hPa
Skyet: hovedsaklig skyet
Sikt: 10 km
2018/04/24 04:20 ENCN 240420Z 19007KT 9999 SCT003 BKN006 06/05 Q1001
 
ENBO - Bodø
Oppdatert: 24/04/2018 06:20
Light rain, mostly cloudy
Light rain, mostly cloudy
 Vind fra ØSØ
Vind: ØSØ 11 km/h
Temperatur: 6°C
Vindkjøling: 4°C
Duggpunkt: 3°C
Fuktighet: 81%
Barometer: 991 hPa
Oversikt: lett regn
Skyet: hovedsaklig skyet
Sikt: 10 km
2018/04/24 04:20 ENBO 240420Z 11006KT 9999 -RA SCT025 BKN035 06/03 Q0991 NOSIG
ENKR - Kirkenes
Oppdatert: 24/04/2018 06:20
Light rain, mostly cloudy
Light rain, mostly cloudy
 Vind fra S
Vind: S 35 km/h
Temperatur: 2°C
Vindkjøling: -4°C
Duggpunkt: 1°C
Fuktighet: 93%
Barometer: 997 hPa
Oversikt: lett regn
Skyet: hovedsaklig skyet
Sikt: 10 km
2018/04/24 04:20 ENKR 240420Z 19019KT 9999 -RA FEW010 BKN065 02/01 Q0997 RMK WIND 731FT 20034KT
 
ENVA - Trondheim
Oppdatert: 24/04/2018 06:20
Light drizzle, mostly cloudy
Light drizzle, mostly cloudy
 Vind fra varies
Vind: varies 6 km/h
Temperatur: 3°C
Duggpunkt: 3°C
Fuktighet: 100%
Barometer: 994 hPa
Oversikt: Yr
Skyet: hovedsaklig skyet
Sikt: 10 km
2018/04/24 04:20 ENVA 240420Z VRB03KT 9999 -DZ FEW024 BKN048 03/03 Q0994 RMK WIND 670FT VRB02KT
ENGM - Oslo
Oppdatert: 24/04/2018 06:20
klart
klart
 Vind fra S
Vind: S 13 km/h
Temperatur: 3°C
Vindkjøling: -1°C
Duggpunkt: 0°C
Fuktighet: 81%
Barometer: 997 hPa
Oversikt: klart
Sikt: greater than 10 km
2018/04/24 04:20 ENGM 240420Z 18007KT CAVOK 03/M00 Q0997 NOSIG